DLH6EJ LJLJ-LJLJ
Flight info
| Callsign | DLH6EJ |
|---|---|
| Flight time | 1h 1m |
| Altitude | 8000 |
| Route | DCT |
| Aircraft | A320/M-SDE3FGHIRWY/LB1 |
Departure
| Time | 2026-05-08 18:05 |
|---|---|
| Airport | Ljubljana Jože Pučnik Airport (LJLJ) |
Arrival
| Time | 2026-05-08 19:07 |
|---|---|
| Airport | Ljubljana Jože Pučnik Airport (LJLJ) |
| Time | Latitude | Longitude | Altitude | Speed | Heading |
|---|---|---|---|---|---|
| 2026-05-08 17:55 | 46.22880 | 14.45439 | 1258 ft | 0 kts | 126° |
| 2026-05-08 18:03 | 46.22866 | 14.45467 | 1262 ft | 8 kts | 126° |
| 2026-05-08 18:03 | 46.22821 | 14.45490 | 1261 ft | 7 kts | 206° |
| 2026-05-08 18:04 | 46.22784 | 14.45431 | 1256 ft | 10 kts | 264° |
| 2026-05-08 18:04 | 46.22803 | 14.45357 | 1264 ft | 7 kts | 268° |
| 2026-05-08 18:04 | 46.22725 | 14.45342 | 1264 ft | 17 kts | 166° |
| 2026-05-08 18:04 | 46.22603 | 14.45402 | 1262 ft | 20 kts | 160° |
| 2026-05-08 18:05 | 46.22487 | 14.45542 | 1257 ft | 27 kts | 126° |
| 2026-05-08 18:05 | 46.22227 | 14.46046 | 1243 ft | 106 kts | 127° |
| 2026-05-08 18:05 | 46.21639 | 14.47192 | 1333 ft | 164 kts | 126° |
| 2026-05-08 18:05 | 46.20947 | 14.48538 | 2175 ft | 170 kts | 126° |
| 2026-05-08 18:06 | 46.20225 | 14.49942 | 2839 ft | 182 kts | 127° |
| 2026-05-08 18:06 | 46.19436 | 14.51549 | 3013 ft | 209 kts | 126° |
| 2026-05-08 18:06 | 46.18536 | 14.53308 | 3028 ft | 237 kts | 134° |
| 2026-05-08 18:06 | 46.17078 | 14.54604 | 3038 ft | 251 kts | 164° |
| 2026-05-08 18:07 | 46.15355 | 14.54778 | 3039 ft | 255 kts | 182° |
| 2026-05-08 18:07 | 46.13585 | 14.54559 | 3036 ft | 256 kts | 184° |
| 2026-05-08 18:07 | 46.11794 | 14.54248 | 3033 ft | 256 kts | 192° |
| 2026-05-08 18:07 | 46.10212 | 14.53096 | 3033 ft | 259 kts | 219° |
| 2026-05-08 18:08 | 46.09039 | 14.51158 | 3032 ft | 263 kts | 239° |
| 2026-05-08 18:08 | 46.08250 | 14.48774 | 3033 ft | 265 kts | 249° |
| 2026-05-08 18:08 | 46.07921 | 14.46112 | 3275 ft | 270 kts | 264° |
| 2026-05-08 18:08 | 46.07780 | 14.43452 | 4262 ft | 271 kts | 265° |
| 2026-05-08 18:09 | 46.07642 | 14.40722 | 4787 ft | 273 kts | 265° |
| 2026-05-08 18:09 | 46.07499 | 14.38002 | 4970 ft | 272 kts | 264° |
| 2026-05-08 18:09 | 46.07354 | 14.35285 | 5026 ft | 271 kts | 265° |
| 2026-05-08 18:09 | 46.07204 | 14.32582 | 5030 ft | 270 kts | 263° |
| 2026-05-08 18:10 | 46.06704 | 14.29995 | 5026 ft | 268 kts | 246° |
| 2026-05-08 18:10 | 46.05889 | 14.27579 | 5029 ft | 268 kts | 243° |
| 2026-05-08 18:10 | 46.04898 | 14.25325 | 5029 ft | 267 kts | 227° |
| 2026-05-08 18:10 | 46.03392 | 14.23783 | 5027 ft | 268 kts | 202° |
| 2026-05-08 18:11 | 46.01610 | 14.23297 | 5024 ft | 269 kts | 178° |
| 2026-05-08 18:11 | 45.99798 | 14.23946 | 5027 ft | 271 kts | 153° |
| 2026-05-08 18:11 | 45.98335 | 14.25639 | 5022 ft | 273 kts | 131° |
| 2026-05-08 18:11 | 45.97101 | 14.27709 | 5026 ft | 273 kts | 131° |
| 2026-05-08 18:12 | 45.96286 | 14.29087 | 5025 ft | 273 kts | 130° |
| 2026-05-08 18:12 | 45.95056 | 14.31167 | 5026 ft | 273 kts | 131° |
| 2026-05-08 18:12 | 45.93932 | 14.33365 | 5021 ft | 273 kts | 118° |
| 2026-05-08 18:12 | 45.93325 | 14.35938 | 5026 ft | 273 kts | 98° |
| 2026-05-08 18:13 | 45.93371 | 14.38646 | 5010 ft | 273 kts | 79° |
| 2026-05-08 18:13 | 45.94377 | 14.41931 | 4879 ft | 274 kts | 62° |
| 2026-05-08 18:13 | 45.95011 | 14.43534 | 4820 ft | 273 kts | 62° |
| 2026-05-08 18:13 | 45.95948 | 14.45908 | 4705 ft | 273 kts | 62° |
| 2026-05-08 18:14 | 45.96881 | 14.48279 | 4601 ft | 272 kts | 62° |
| 2026-05-08 18:14 | 45.97810 | 14.50648 | 4502 ft | 272 kts | 61° |
| 2026-05-08 18:14 | 45.98736 | 14.53009 | 4394 ft | 270 kts | 62° |
| 2026-05-08 18:14 | 45.99620 | 14.55388 | 4293 ft | 270 kts | 69° |
| 2026-05-08 18:15 | 46.00139 | 14.57962 | 4189 ft | 268 kts | 83° |
| 2026-05-08 18:15 | 46.00213 | 14.60621 | 4067 ft | 265 kts | 94° |
| 2026-05-08 18:15 | 46.00149 | 14.63261 | 4024 ft | 264 kts | 93° |
| 2026-05-08 18:15 | 46.00314 | 14.65887 | 4023 ft | 266 kts | 77° |
| 2026-05-08 18:16 | 46.01000 | 14.68332 | 4028 ft | 269 kts | 60° |
| 2026-05-08 18:16 | 46.02191 | 14.70398 | 4029 ft | 270 kts | 41° |
| 2026-05-08 18:16 | 46.03770 | 14.71783 | 4020 ft | 259 kts | 22° |
| 2026-05-08 18:16 | 46.05465 | 14.72341 | 4021 ft | 244 kts | 4° |
| 2026-05-08 18:17 | 46.07137 | 14.72149 | 4021 ft | 240 kts | 346° |
| 2026-05-08 18:17 | 46.08687 | 14.71266 | 4027 ft | 241 kts | 329° |
| 2026-05-08 18:17 | 46.09991 | 14.69763 | 4028 ft | 240 kts | 311° |
| 2026-05-08 18:17 | 46.11008 | 14.67857 | 4030 ft | 240 kts | 306° |
| 2026-05-08 18:18 | 46.12009 | 14.65920 | 4030 ft | 240 kts | 306° |
| 2026-05-08 18:18 | 46.12984 | 14.64032 | 3917 ft | 231 kts | 306° |
| 2026-05-08 18:18 | 46.13932 | 14.62193 | 3661 ft | 225 kts | 306° |
| 2026-05-08 18:18 | 46.14846 | 14.60419 | 3383 ft | 216 kts | 305° |
| 2026-05-08 18:19 | 46.15720 | 14.58720 | 3127 ft | 204 kts | 305° |
| 2026-05-08 18:19 | 46.16539 | 14.57128 | 2855 ft | 191 kts | 305° |
| 2026-05-08 18:19 | 46.17307 | 14.55634 | 2616 ft | 177 kts | 305° |
| 2026-05-08 18:19 | 46.18012 | 14.54262 | 2376 ft | 164 kts | 305° |
| 2026-05-08 18:20 | 46.18671 | 14.52977 | 2157 ft | 155 kts | 306° |
| 2026-05-08 18:20 | 46.19305 | 14.51742 | 1956 ft | 151 kts | 307° |
| 2026-05-08 18:20 | 46.19929 | 14.50528 | 1726 ft | 150 kts | 307° |
| 2026-05-08 18:20 | 46.20540 | 14.49323 | 1538 ft | 150 kts | 306° |
| 2026-05-08 18:21 | 46.21163 | 14.48116 | 1358 ft | 150 kts | 307° |
| 2026-05-08 18:21 | 46.21774 | 14.46929 | 1222 ft | 139 kts | 307° |
| 2026-05-08 18:21 | 46.22280 | 14.45937 | 1246 ft | 112 kts | 306° |
| 2026-05-08 18:21 | 46.22863 | 14.44797 | 1319 ft | 168 kts | 306° |
| 2026-05-08 18:22 | 46.23601 | 14.43365 | 1997 ft | 184 kts | 306° |
| 2026-05-08 18:22 | 46.24244 | 14.41756 | 2780 ft | 192 kts | 284° |
| 2026-05-08 18:22 | 46.24120 | 14.39752 | 3054 ft | 213 kts | 242° |
| 2026-05-08 18:22 | 46.23040 | 14.38252 | 3419 ft | 232 kts | 201° |
| 2026-05-08 18:23 | 46.21388 | 14.38075 | 3831 ft | 253 kts | 163° |
| 2026-05-08 18:23 | 46.19755 | 14.39239 | 4565 ft | 264 kts | 146° |
| 2026-05-08 18:23 | 46.18280 | 14.40866 | 4926 ft | 268 kts | 140° |
| 2026-05-08 18:23 | 46.16890 | 14.42608 | 5016 ft | 268 kts | 140° |
| 2026-05-08 18:24 | 46.15250 | 14.43835 | 5034 ft | 267 kts | 167° |
| 2026-05-08 18:24 | 46.13407 | 14.44180 | 5038 ft | 268 kts | 176° |
| 2026-05-08 18:24 | 46.11546 | 14.44333 | 5037 ft | 268 kts | 177° |
| 2026-05-08 18:24 | 46.09683 | 14.44470 | 5034 ft | 268 kts | 177° |
| 2026-05-08 18:25 | 46.07826 | 14.44603 | 5254 ft | 265 kts | 177° |
| 2026-05-08 18:25 | 46.06062 | 14.44735 | 6636 ft | 244 kts | 178° |
| 2026-05-08 18:25 | 46.04380 | 14.44861 | 7637 ft | 241 kts | 178° |
| 2026-05-08 18:25 | 46.02699 | 14.44986 | 8457 ft | 243 kts | 178° |
| 2026-05-08 18:26 | 46.01031 | 14.45449 | 9219 ft | 249 kts | 154° |
| 2026-05-08 18:26 | 45.99707 | 14.47047 | 9973 ft | 253 kts | 122° |
| 2026-05-08 18:26 | 45.99095 | 14.49416 | 10666 ft | 256 kts | 101° |
| 2026-05-08 18:26 | 45.98737 | 14.51922 | 11455 ft | 257 kts | 101° |
| 2026-05-08 18:27 | 45.98576 | 14.54481 | 12216 ft | 259 kts | 84° |
| 2026-05-08 18:27 | 45.98798 | 14.56166 | 12719 ft | 260 kts | 71° |
| 2026-05-08 18:27 | 45.99955 | 14.59233 | 13736 ft | 263 kts | 57° |
| 2026-05-08 18:27 | 46.00968 | 14.61437 | 14418 ft | 266 kts | 57° |
| 2026-05-08 18:28 | 46.01994 | 14.63686 | 14898 ft | 272 kts | 57° |
| 2026-05-08 18:28 | 46.03029 | 14.65959 | 15019 ft | 271 kts | 57° |
| 2026-05-08 18:28 | 46.04064 | 14.68233 | 15045 ft | 272 kts | 57° |
| 2026-05-08 18:28 | 46.05087 | 14.70483 | 15047 ft | 272 kts | 57° |
| 2026-05-08 18:29 | 46.06120 | 14.72762 | 15050 ft | 272 kts | 57° |
| 2026-05-08 18:29 | 46.07006 | 14.75146 | 15047 ft | 270 kts | 73° |
| 2026-05-08 18:29 | 46.07283 | 14.77803 | 15047 ft | 269 kts | 94° |
| 2026-05-08 18:29 | 46.06888 | 14.80410 | 15046 ft | 267 kts | 115° |
| 2026-05-08 18:30 | 46.05903 | 14.82659 | 15047 ft | 266 kts | 128° |
| 2026-05-08 18:30 | 46.04779 | 14.84785 | 15046 ft | 267 kts | 128° |
| 2026-05-08 18:30 | 46.03641 | 14.86951 | 15047 ft | 268 kts | 128° |
| 2026-05-08 18:30 | 46.02536 | 14.89056 | 15046 ft | 268 kts | 128° |
| 2026-05-08 18:31 | 46.01236 | 14.90939 | 15041 ft | 265 kts | 150° |
| 2026-05-08 18:31 | 45.99528 | 14.91805 | 15043 ft | 262 kts | 177° |
| 2026-05-08 18:31 | 45.97746 | 14.91436 | 15044 ft | 261 kts | 204° |
| 2026-05-08 18:31 | 45.96278 | 14.89934 | 15047 ft | 262 kts | 230° |
| 2026-05-08 18:32 | 45.95389 | 14.87660 | 15047 ft | 264 kts | 254° |
| 2026-05-08 18:32 | 45.95233 | 14.85051 | 15046 ft | 265 kts | 279° |
| 2026-05-08 18:32 | 45.95886 | 14.82591 | 15045 ft | 266 kts | 306° |
| 2026-05-08 18:32 | 45.97245 | 14.80814 | 15047 ft | 268 kts | 333° |
| 2026-05-08 18:33 | 45.99036 | 14.80118 | 15045 ft | 269 kts | 360° |
| 2026-05-08 18:33 | 46.00876 | 14.80559 | 15055 ft | 271 kts | 15° |
| 2026-05-08 18:33 | 46.02693 | 14.81301 | 15048 ft | 272 kts | 16° |
| 2026-05-08 18:33 | 46.04549 | 14.81688 | 15047 ft | 270 kts | 354° |
| 2026-05-08 18:34 | 46.06344 | 14.80955 | 15049 ft | 269 kts | 329° |
| 2026-05-08 18:34 | 46.07730 | 14.79200 | 15051 ft | 267 kts | 306° |
| 2026-05-08 18:34 | 46.08808 | 14.77021 | 15049 ft | 267 kts | 294° |
| 2026-05-08 18:34 | 46.09245 | 14.74467 | 15050 ft | 264 kts | 268° |
| 2026-05-08 18:35 | 46.08834 | 14.71925 | 15049 ft | 262 kts | 241° |
| 2026-05-08 18:35 | 46.07667 | 14.69940 | 15049 ft | 261 kts | 214° |
| 2026-05-08 18:35 | 46.06009 | 14.68929 | 15049 ft | 262 kts | 188° |
| 2026-05-08 18:35 | 46.04193 | 14.69022 | 15049 ft | 263 kts | 164° |
| 2026-05-08 18:36 | 46.02591 | 14.70248 | 15049 ft | 264 kts | 137° |
| 2026-05-08 18:36 | 46.01385 | 14.72250 | 15047 ft | 266 kts | 129° |
| 2026-05-08 18:36 | 46.00236 | 14.74329 | 15045 ft | 266 kts | 129° |
| 2026-05-08 18:36 | 45.99092 | 14.76426 | 15043 ft | 266 kts | 128° |
| 2026-05-08 18:37 | 45.97962 | 14.78527 | 15044 ft | 266 kts | 128° |
| 2026-05-08 18:37 | 45.96839 | 14.80645 | 15045 ft | 266 kts | 126° |
| 2026-05-08 18:37 | 45.96078 | 14.83047 | 15042 ft | 267 kts | 101° |
| 2026-05-08 18:37 | 45.96131 | 14.85695 | 15042 ft | 267 kts | 73° |
| 2026-05-08 18:38 | 45.96995 | 14.88036 | 15045 ft | 268 kts | 47° |
| 2026-05-08 18:38 | 45.98507 | 14.89587 | 15047 ft | 269 kts | 20° |
| 2026-05-08 18:38 | 46.00337 | 14.89998 | 15041 ft | 269 kts | 353° |
| 2026-05-08 18:38 | 46.02098 | 14.89193 | 15046 ft | 267 kts | 326° |
| 2026-05-08 18:39 | 46.03447 | 14.87397 | 15045 ft | 266 kts | 307° |
| 2026-05-08 18:39 | 46.04590 | 14.85292 | 15047 ft | 267 kts | 306° |
| 2026-05-08 18:39 | 46.05700 | 14.83158 | 15047 ft | 267 kts | 305° |
| 2026-05-08 18:39 | 46.06807 | 14.81010 | 15049 ft | 267 kts | 306° |
| 2026-05-08 18:40 | 46.07917 | 14.78854 | 15051 ft | 268 kts | 306° |
| 2026-05-08 18:40 | 46.08922 | 14.76604 | 15049 ft | 266 kts | 290° |
| 2026-05-08 18:40 | 46.09225 | 14.74007 | 15052 ft | 263 kts | 263° |
| 2026-05-08 18:40 | 46.08773 | 14.71472 | 15052 ft | 263 kts | 251° |
| 2026-05-08 18:41 | 46.08544 | 14.68877 | 15048 ft | 264 kts | 278° |
| 2026-05-08 18:41 | 46.09193 | 14.66415 | 15054 ft | 266 kts | 302° |
| 2026-05-08 18:41 | 46.10290 | 14.64260 | 15055 ft | 267 kts | 307° |
| 2026-05-08 18:41 | 46.11440 | 14.62154 | 15054 ft | 267 kts | 308° |
| 2026-05-08 18:42 | 46.12595 | 14.60055 | 15056 ft | 267 kts | 308° |
| 2026-05-08 18:42 | 46.13753 | 14.57957 | 15055 ft | 268 kts | 308° |
| 2026-05-08 18:42 | 46.14916 | 14.55852 | 15055 ft | 268 kts | 308° |
| 2026-05-08 18:42 | 46.16074 | 14.53752 | 15057 ft | 267 kts | 308° |
| 2026-05-08 18:43 | 46.17232 | 14.51652 | 15057 ft | 268 kts | 307° |
| 2026-05-08 18:43 | 46.18389 | 14.49551 | 15057 ft | 268 kts | 307° |
| 2026-05-08 18:43 | 46.19547 | 14.47446 | 15058 ft | 267 kts | 308° |
| 2026-05-08 18:43 | 46.20698 | 14.45354 | 15058 ft | 266 kts | 307° |
| 2026-05-08 18:44 | 46.21842 | 14.43266 | 15056 ft | 266 kts | 307° |
| 2026-05-08 18:44 | 46.22987 | 14.41170 | 15057 ft | 266 kts | 308° |
| 2026-05-08 18:44 | 46.24131 | 14.39076 | 15056 ft | 266 kts | 307° |
| 2026-05-08 18:44 | 46.25275 | 14.36986 | 15056 ft | 265 kts | 308° |
| 2026-05-08 18:45 | 46.26435 | 14.34912 | 15055 ft | 266 kts | 313° |
| 2026-05-08 18:45 | 46.27910 | 14.33325 | 15058 ft | 266 kts | 335° |
| 2026-05-08 18:45 | 46.29706 | 14.32763 | 15056 ft | 267 kts | 2° |
| 2026-05-08 18:45 | 46.31489 | 14.33448 | 15056 ft | 268 kts | 30° |
| 2026-05-08 18:46 | 46.32861 | 14.35240 | 15055 ft | 268 kts | 57° |
| 2026-05-08 18:46 | 46.33528 | 14.37737 | 15057 ft | 269 kts | 84° |
| 2026-05-08 18:46 | 46.33360 | 14.40397 | 15054 ft | 268 kts | 111° |
| 2026-05-08 18:46 | 46.32450 | 14.42733 | 15058 ft | 268 kts | 126° |
| 2026-05-08 18:47 | 46.31379 | 14.44944 | 15057 ft | 268 kts | 126° |
| 2026-05-08 18:47 | 46.30303 | 14.47154 | 15056 ft | 268 kts | 126° |
| 2026-05-08 18:47 | 46.29230 | 14.49358 | 15056 ft | 268 kts | 126° |
| 2026-05-08 18:47 | 46.28091 | 14.51494 | 15052 ft | 267 kts | 139° |
| 2026-05-08 18:48 | 46.26515 | 14.52848 | 15054 ft | 264 kts | 165° |
| 2026-05-08 18:48 | 46.25321 | 14.53115 | 15056 ft | 263 kts | 182° |
| 2026-05-08 18:48 | 46.23562 | 14.52535 | 15053 ft | 261 kts | 207° |
| 2026-05-08 18:48 | 46.22157 | 14.50917 | 15056 ft | 260 kts | 233° |
| 2026-05-08 18:49 | 46.21382 | 14.48574 | 15058 ft | 261 kts | 259° |
| 2026-05-08 18:49 | 46.21389 | 14.45968 | 15057 ft | 262 kts | 284° |
| 2026-05-08 18:49 | 46.22488 | 14.42872 | 15057 ft | 264 kts | 303° |
| 2026-05-08 18:49 | 46.23533 | 14.40684 | 15056 ft | 265 kts | 304° |
| 2026-05-08 18:50 | 46.24599 | 14.38517 | 15058 ft | 265 kts | 305° |
| 2026-05-08 18:50 | 46.25324 | 14.37046 | 15056 ft | 265 kts | 304° |
| 2026-05-08 18:50 | 46.26389 | 14.34915 | 15057 ft | 265 kts | 309° |
| 2026-05-08 18:50 | 46.27827 | 14.33282 | 15056 ft | 265 kts | 336° |
| 2026-05-08 18:51 | 46.29620 | 14.32740 | 15056 ft | 266 kts | 2° |
| 2026-05-08 18:51 | 46.31407 | 14.33417 | 15055 ft | 267 kts | 29° |
| 2026-05-08 18:51 | 46.32797 | 14.35177 | 15054 ft | 268 kts | 56° |
| 2026-05-08 18:51 | 46.33493 | 14.37654 | 15055 ft | 268 kts | 83° |
| 2026-05-08 18:52 | 46.33348 | 14.40309 | 15055 ft | 267 kts | 110° |
| 2026-05-08 18:52 | 46.32467 | 14.42664 | 15058 ft | 267 kts | 124° |
| 2026-05-08 18:52 | 46.31419 | 14.44884 | 15058 ft | 268 kts | 126° |
| 2026-05-08 18:52 | 46.30319 | 14.47139 | 15058 ft | 268 kts | 126° |
| 2026-05-08 18:53 | 46.29253 | 14.49309 | 15055 ft | 268 kts | 126° |
| 2026-05-08 18:53 | 46.28124 | 14.51441 | 15051 ft | 267 kts | 138° |
| 2026-05-08 18:53 | 46.26556 | 14.52811 | 15054 ft | 264 kts | 165° |
| 2026-05-08 18:53 | 46.24748 | 14.53027 | 15054 ft | 262 kts | 190° |
| 2026-05-08 18:54 | 46.23067 | 14.52092 | 15054 ft | 261 kts | 216° |
| 2026-05-08 18:54 | 46.21834 | 14.50199 | 15058 ft | 261 kts | 242° |
| 2026-05-08 18:54 | 46.21301 | 14.47709 | 15059 ft | 261 kts | 267° |
| 2026-05-08 18:54 | 46.21574 | 14.45130 | 15057 ft | 262 kts | 293° |
| 2026-05-08 18:55 | 46.23538 | 14.40665 | 15057 ft | 265 kts | 304° |
| 2026-05-08 18:55 | 46.24601 | 14.38496 | 15058 ft | 265 kts | 305° |
| 2026-05-08 18:55 | 46.25662 | 14.36321 | 15057 ft | 264 kts | 301° |
| 2026-05-08 18:56 | 46.26259 | 14.33849 | 15056 ft | 262 kts | 272° |
| 2026-05-08 18:56 | 46.25956 | 14.31285 | 15056 ft | 261 kts | 243° |
| 2026-05-08 18:56 | 46.24872 | 14.29269 | 14862 ft | 259 kts | 216° |
| 2026-05-08 18:56 | 46.23236 | 14.28257 | 14590 ft | 258 kts | 187° |
| 2026-05-08 18:57 | 46.21464 | 14.28533 | 14318 ft | 259 kts | 161° |
| 2026-05-08 18:57 | 46.19797 | 14.29544 | 14027 ft | 260 kts | 155° |
| 2026-05-08 18:57 | 46.18160 | 14.30661 | 13754 ft | 261 kts | 155° |
| 2026-05-08 18:57 | 46.16523 | 14.31793 | 13472 ft | 260 kts | 155° |
| 2026-05-08 18:58 | 46.14900 | 14.32915 | 13203 ft | 259 kts | 155° |
| 2026-05-08 18:58 | 46.13234 | 14.33861 | 12930 ft | 256 kts | 169° |
| 2026-05-08 18:58 | 46.11472 | 14.34235 | 12649 ft | 255 kts | 174° |
| 2026-05-08 18:58 | 46.09713 | 14.34536 | 12365 ft | 255 kts | 169° |
| 2026-05-08 18:59 | 46.08050 | 14.35401 | 12082 ft | 254 kts | 152° |
| 2026-05-08 18:59 | 46.06696 | 14.37003 | 11798 ft | 253 kts | 133° |
| 2026-05-08 18:59 | 46.05543 | 14.38908 | 11422 ft | 251 kts | 129° |
| 2026-05-08 18:59 | 46.04488 | 14.40912 | 10930 ft | 250 kts | 125° |
| 2026-05-08 19:00 | 46.03487 | 14.42959 | 10374 ft | 254 kts | 125° |
| 2026-05-08 19:00 | 46.02451 | 14.45074 | 9613 ft | 264 kts | 125° |
| 2026-05-08 19:00 | 46.01375 | 14.47269 | 8817 ft | 271 kts | 125° |
| 2026-05-08 19:00 | 46.00348 | 14.49564 | 8050 ft | 275 kts | 112° |
| 2026-05-08 19:01 | 45.99981 | 14.52245 | 7303 ft | 276 kts | 89° |
| 2026-05-08 19:01 | 46.00074 | 14.55015 | 6564 ft | 278 kts | 85° |
| 2026-05-08 19:01 | 46.00323 | 14.57766 | 5808 ft | 278 kts | 72° |
| 2026-05-08 19:01 | 46.01274 | 14.60166 | 5037 ft | 279 kts | 50° |
| 2026-05-08 19:02 | 46.02612 | 14.62195 | 4323 ft | 278 kts | 45° |
| 2026-05-08 19:02 | 46.03943 | 14.64081 | 4099 ft | 258 kts | 45° |
| 2026-05-08 19:02 | 46.05177 | 14.65798 | 4044 ft | 237 kts | 44° |
| 2026-05-08 19:02 | 46.06532 | 14.67146 | 4049 ft | 238 kts | 25° |
| 2026-05-08 19:03 | 46.08123 | 14.67776 | 4053 ft | 239 kts | 5° |
| 2026-05-08 19:03 | 46.09775 | 14.67608 | 4055 ft | 240 kts | 345° |
| 2026-05-08 19:03 | 46.11295 | 14.66645 | 4051 ft | 240 kts | 324° |
| 2026-05-08 19:03 | 46.12494 | 14.64993 | 4018 ft | 239 kts | 306° |
| 2026-05-08 19:04 | 46.13475 | 14.63092 | 3791 ft | 234 kts | 305° |
| 2026-05-08 19:04 | 46.14438 | 14.61212 | 3503 ft | 230 kts | 305° |
| 2026-05-08 19:04 | 46.15369 | 14.59400 | 3197 ft | 220 kts | 305° |
| 2026-05-08 19:04 | 46.16259 | 14.57672 | 2932 ft | 206 kts | 305° |
| 2026-05-08 19:05 | 46.17088 | 14.56059 | 2669 ft | 193 kts | 305° |
| 2026-05-08 19:05 | 46.17854 | 14.54570 | 2420 ft | 176 kts | 304° |
| 2026-05-08 19:05 | 46.18550 | 14.53215 | 2187 ft | 161 kts | 304° |
| 2026-05-08 19:05 | 46.19196 | 14.51955 | 1981 ft | 153 kts | 306° |
| 2026-05-08 19:06 | 46.19821 | 14.50735 | 1785 ft | 149 kts | 307° |
| 2026-05-08 19:06 | 46.20433 | 14.49542 | 1590 ft | 147 kts | 307° |
| 2026-05-08 19:06 | 46.21038 | 14.48361 | 1398 ft | 146 kts | 307° |
| 2026-05-08 19:06 | 46.21642 | 14.47183 | 1212 ft | 143 kts | 307° |
| 2026-05-08 19:07 | 46.22144 | 14.46208 | 1252 ft | 97 kts | 306° |
| 2026-05-08 19:07 | 46.22456 | 14.45600 | 1249 ft | 59 kts | 306° |
| 2026-05-08 19:07 | 46.22607 | 14.45406 | 1263 ft | 9 kts | 338° |
| 2026-05-08 19:07 | 46.22654 | 14.45379 | 1257 ft | 6 kts | 338° |
| 2026-05-08 19:08 | 46.22684 | 14.45361 | 1259 ft | 7 kts | 338° |
| 2026-05-08 19:08 | 46.22734 | 14.45339 | 1258 ft | 8 kts | 347° |
| 2026-05-08 19:08 | 46.22821 | 14.45319 | 1267 ft | 13 kts | 356° |
| 2026-05-08 19:08 | 46.22890 | 14.45368 | 1261 ft | 11 kts | 37° |
| 2026-05-08 19:09 | 46.22948 | 14.45413 | 1259 ft | 8 kts | 26° |
| 2026-05-08 19:09 | 46.22991 | 14.45456 | 1261 ft | 7 kts | 36° |
| 2026-05-08 19:09 | 46.22998 | 14.45463 | 1262 ft | 0 kts | 37° |
| 2026-05-08 19:10 | 46.23001 | 14.45467 | 1261 ft | 2 kts | 37° |
| 2026-05-08 19:10 | 46.23003 | 14.45469 | 1261 ft | 0 kts | 37° |